sensor_id;sensor_type;location;lat;lon;timestamp;pressure;altitude;pressure_sealevel;temperature;humidity
10261;BME280;5175;42.606;23.388;2023-01-28T00:00:10;93062.66;;;0.09;100.00
10261;BME280;5175;42.606;23.388;2023-01-28T00:02:37;93062.53;;;0.04;100.00
10261;BME280;5175;42.606;23.388;2023-01-28T00:05:04;93058.09;;;0.05;100.00
10261;BME280;5175;42.606;23.388;2023-01-28T00:07:32;93065.03;;;0.11;100.00
10261;BME280;5175;42.606;23.388;2023-01-28T00:09:59;93070.53;;;-0.03;100.00
10261;BME280;5175;42.606;23.388;2023-01-28T00:12:26;93082.50;;;-0.07;100.00
10261;BME280;5175;42.606;23.388;2023-01-28T00:14:54;93084.22;;;-0.01;100.00
10261;BME280;5175;42.606;23.388;2023-01-28T00:17:20;93086.84;;;-0.01;100.00
10261;BME280;5175;42.606;23.388;2023-01-28T00:19:47;93083.63;;;0.09;100.00
10261;BME280;5175;42.606;23.388;2023-01-28T00:22:14;93084.16;;;0.23;100.00
10261;BME280;5175;42.606;23.388;2023-01-28T00:24:42;93100.00;;;0.28;100.00
10261;BME280;5175;42.606;23.388;2023-01-28T00:27:08;93101.25;;;0.25;100.00
10261;BME280;5175;42.606;23.388;2023-01-28T00:29:35;93097.34;;;-0.01;100.00
10261;BME280;5175;42.606;23.388;2023-01-28T00:32:03;93098.34;;;0.10;100.00
10261;BME280;5175;42.606;23.388;2023-01-28T00:34:30;93095.38;;;-0.05;100.00
10261;BME280;5175;42.606;23.388;2023-01-28T00:36:56;93091.66;;;-0.21;100.00
10261;BME280;5175;42.606;23.388;2023-01-28T00:39:23;93097.03;;;-0.39;100.00
10261;BME280;5175;42.606;23.388;2023-01-28T00:41:52;93099.84;;;-0.40;100.00
10261;BME280;5175;42.606;23.388;2023-01-28T00:44:19;93090.41;;;-0.53;100.00
10261;BME280;5175;42.606;23.388;2023-01-28T00:46:46;93092.81;;;-0.75;100.00
10261;BME280;5175;42.606;23.388;2023-01-28T00:49:13;93097.22;;;-0.87;100.00
10261;BME280;5175;42.606;23.388;2023-01-28T00:51:40;93092.78;;;-0.86;100.00
10261;BME280;5175;42.606;23.388;2023-01-28T00:54:07;93076.63;;;-0.83;100.00
10261;BME280;5175;42.606;23.388;2023-01-28T00:56:34;93088.94;;;-0.72;100.00
10261;BME280;5175;42.606;23.388;2023-01-28T00:59:03;93103.41;;;-0.70;100.00
10261;BME280;5175;42.606;23.388;2023-01-28T01:01:30;93093.50;;;-0.68;100.00
10261;BME280;5175;42.606;23.388;2023-01-28T01:03:57;93093.84;;;-0.52;100.00
10261;BME280;5175;42.606;23.388;2023-01-28T01:06:28;93091.09;;;-0.57;100.00
10261;BME280;5175;42.606;23.388;2023-01-28T01:08:55;93095.88;;;-0.54;100.00
10261;BME280;5175;42.606;23.388;2023-01-28T01:11:21;93097.25;;;-0.52;100.00
10261;BME280;5175;42.606;23.388;2023-01-28T01:13:50;93096.00;;;-0.49;100.00
10261;BME280;5175;42.606;23.388;2023-01-28T01:16:21;93102.50;;;-0.52;100.00
10261;BME280;5175;42.606;23.388;2023-01-28T01:18:50;93076.28;;;-0.75;100.00
10261;BME280;5175;42.606;23.388;2023-01-28T01:21:18;93114.56;;;-0.63;100.00
10261;BME280;5175;42.606;23.388;2023-01-28T01:23:46;92921.09;;;-1.86;100.00
10261;BME280;5175;42.606;23.388;2023-01-28T01:26:13;93101.56;;;-0.69;100.00
10261;BME280;5175;42.606;23.388;2023-01-28T01:28:41;93098.84;;;-0.63;100.00
10261;BME280;5175;42.606;23.388;2023-01-28T01:31:11;93094.25;;;-0.79;100.00
10261;BME280;5175;42.606;23.388;2023-01-28T01:33:40;93098.25;;;-0.76;100.00
10261;BME280;5175;42.606;23.388;2023-01-28T01:36:07;93093.25;;;-0.78;100.00
10261;BME280;5175;42.606;23.388;2023-01-28T01:38:34;93097.44;;;-0.77;100.00
10261;BME280;5175;42.606;23.388;2023-01-28T01:41:01;93090.97;;;-0.86;100.00
10261;BME280;5175;42.606;23.388;2023-01-28T01:43:46;93096.75;;;-0.84;100.00
10261;BME280;5175;42.606;23.388;2023-01-28T01:46:14;93089.72;;;-0.83;100.00
10261;BME280;5175;42.606;23.388;2023-01-28T01:48:42;93099.06;;;-0.76;100.00
10261;BME280;5175;42.606;23.388;2023-01-28T01:51:11;93097.00;;;-0.74;100.00
10261;BME280;5175;42.606;23.388;2023-01-28T01:53:44;93090.97;;;-0.63;100.00
10261;BME280;5175;42.606;23.388;2023-01-28T01:56:14;93097.34;;;-0.58;100.00
10261;BME280;5175;42.606;23.388;2023-01-28T01:58:44;93099.75;;;-0.57;100.00
10261;BME280;5175;42.606;23.388;2023-01-28T02:01:13;93108.06;;;-0.60;100.00
10261;BME280;5175;42.606;23.388;2023-01-28T02:03:45;93112.16;;;-0.52;100.00
10261;BME280;5175;42.606;23.388;2023-01-28T02:06:13;93110.69;;;-0.60;100.00
10261;BME280;5175;42.606;23.388;2023-01-28T02:08:40;93113.41;;;-0.55;100.00
10261;BME280;5175;42.606;23.388;2023-01-28T02:11:09;93117.75;;;-0.49;100.00
10261;BME280;5175;42.606;23.388;2023-01-28T02:13:38;93117.06;;;-0.44;100.00
10261;BME280;5175;42.606;23.388;2023-01-28T02:16:07;93099.28;;;-0.42;100.00
10261;BME280;5175;42.606;23.388;2023-01-28T02:18:35;93109.00;;;-0.31;100.00
10261;BME280;5175;42.606;23.388;2023-01-28T02:21:30;93120.25;;;-0.31;100.00
10261;BME280;5175;42.606;23.388;2023-01-28T02:24:14;93125.25;;;-0.18;100.00
10261;BME280;5175;42.606;23.388;2023-01-28T02:27:17;93115.59;;;-0.29;100.00
10261;BME280;5175;42.606;23.388;2023-01-28T02:29:54;93116.84;;;-0.31;100.00
10261;BME280;5175;42.606;23.388;2023-01-28T02:32:25;93119.59;;;-0.26;100.00
10261;BME280;5175;42.606;23.388;2023-01-28T02:34:58;93121.03;;;-0.30;100.00
10261;BME280;5175;42.606;23.388;2023-01-28T02:37:33;93115.38;;;-0.39;100.00
10261;BME280;5175;42.606;23.388;2023-01-28T02:40:07;93120.72;;;-0.34;100.00
10261;BME280;5175;42.606;23.388;2023-01-28T02:42:37;93115.25;;;-0.44;100.00
10261;BME280;5175;42.606;23.388;2023-01-28T02:45:16;93127.09;;;-0.41;100.00
10261;BME280;5175;42.606;23.388;2023-01-28T02:47:45;93126.84;;;-0.28;100.00
10261;BME280;5175;42.606;23.388;2023-01-28T02:50:26;93105.78;;;-0.68;100.00
10261;BME280;5175;42.606;23.388;2023-01-28T02:53:07;93122.88;;;-0.31;100.00
10261;BME280;5175;42.606;23.388;2023-01-28T02:56:02;93127.09;;;-0.18;100.00
10261;BME280;5175;42.606;23.388;2023-01-28T02:58:36;93127.66;;;-0.39;100.00
10261;BME280;5175;42.606;23.388;2023-01-28T03:01:14;93124.47;;;-0.41;100.00
10261;BME280;5175;42.606;23.388;2023-01-28T03:03:52;93128.00;;;-0.36;100.00
10261;BME280;5175;42.606;23.388;2023-01-28T03:06:22;93136.91;;;-0.37;100.00
10261;BME280;5175;42.606;23.388;2023-01-28T03:08:52;93125.63;;;-0.26;100.00
10261;BME280;5175;42.606;23.388;2023-01-28T03:11:55;93128.34;;;-0.32;100.00
10261;BME280;5175;42.606;23.388;2023-01-28T03:14:40;93126.75;;;-0.22;100.00
10261;BME280;5175;42.606;23.388;2023-01-28T03:17:31;93134.06;;;-0.24;100.00
10261;BME280;5175;42.606;23.388;2023-01-28T03:20:17;93129.59;;;-0.46;100.00
10261;BME280;5175;42.606;23.388;2023-01-28T03:23:07;93135.28;;;-0.61;100.00
10261;BME280;5175;42.606;23.388;2023-01-28T03:25:57;93133.47;;;-0.37;100.00
10261;BME280;5175;42.606;23.388;2023-01-28T03:28:43;93128.91;;;-0.42;100.00
10261;BME280;5175;42.606;23.388;2023-01-28T03:31:29;93124.81;;;-0.49;100.00
10261;BME280;5175;42.606;23.388;2023-01-28T03:34:16;93137.69;;;-0.36;100.00
10261;BME280;5175;42.606;23.388;2023-01-28T03:37:01;93137.00;;;-0.32;100.00
10261;BME280;5175;42.606;23.388;2023-01-28T03:39:29;93142.59;;;-0.40;100.00
10261;BME280;5175;42.606;23.388;2023-01-28T03:41:58;93136.31;;;-0.27;100.00
10261;BME280;5175;42.606;23.388;2023-01-28T03:44:25;93143.72;;;-0.13;100.00
10261;BME280;5175;42.606;23.388;2023-01-28T03:47:10;93135.06;;;-0.13;100.00
10261;BME280;5175;42.606;23.388;2023-01-28T03:49:40;93122.53;;;-0.34;100.00
10261;BME280;5175;42.606;23.388;2023-01-28T03:52:07;93132.22;;;-0.35;100.00
10261;BME280;5175;42.606;23.388;2023-01-28T03:54:34;93137.22;;;-0.33;100.00
10261;BME280;5175;42.606;23.388;2023-01-28T03:57:01;93142.03;;;-0.42;100.00
10261;BME280;5175;42.606;23.388;2023-01-28T03:59:28;93143.50;;;-0.34;100.00
10261;BME280;5175;42.606;23.388;2023-01-28T04:01:54;93145.06;;;-0.33;100.00
10261;BME280;5175;42.606;23.388;2023-01-28T04:04:21;93144.66;;;-0.42;100.00
10261;BME280;5175;42.606;23.388;2023-01-28T04:06:50;93147.94;;;-0.35;100.00
10261;BME280;5175;42.606;23.388;2023-01-28T04:09:18;93137.47;;;-0.46;100.00
10261;BME280;5175;42.606;23.388;2023-01-28T04:11:45;93139.84;;;-0.45;100.00
10261;BME280;5175;42.606;23.388;2023-01-28T04:14:16;93152.03;;;-0.50;100.00
10261;BME280;5175;42.606;23.388;2023-01-28T04:16:43;93150.78;;;-0.48;100.00
10261;BME280;5175;42.606;23.388;2023-01-28T04:19:10;93158.44;;;-0.46;100.00
10261;BME280;5175;42.606;23.388;2023-01-28T04:21:38;93148.59;;;-0.51;100.00
10261;BME280;5175;42.606;23.388;2023-01-28T04:24:07;93165.34;;;-0.64;100.00
10261;BME280;5175;42.606;23.388;2023-01-28T04:26:33;93161.78;;;-0.69;100.00
10261;BME280;5175;42.606;23.388;2023-01-28T04:29:00;93162.03;;;-0.59;100.00
10261;BME280;5175;42.606;23.388;2023-01-28T04:31:27;93162.38;;;-0.67;100.00
10261;BME280;5175;42.606;23.388;2023-01-28T04:33:54;93161.09;;;-0.76;100.00
10261;BME280;5175;42.606;23.388;2023-01-28T04:36:21;93176.16;;;-0.60;100.00
10261;BME280;5175;42.606;23.388;2023-01-28T04:38:47;93178.34;;;-0.57;100.00
10261;BME280;5175;42.606;23.388;2023-01-28T04:41:15;93178.41;;;-0.75;100.00
10261;BME280;5175;42.606;23.388;2023-01-28T04:43:42;93171.00;;;-0.67;100.00
10261;BME280;5175;42.606;23.388;2023-01-28T04:46:09;93191.31;;;-0.62;100.00
10261;BME280;5175;42.606;23.388;2023-01-28T04:48:36;93192.44;;;-0.58;100.00
10261;BME280;5175;42.606;23.388;2023-01-28T04:51:03;93186.97;;;-0.68;100.00
10261;BME280;5175;42.606;23.388;2023-01-28T04:53:30;93192.44;;;-0.58;100.00
10261;BME280;5175;42.606;23.388;2023-01-28T04:55:56;93201.91;;;-0.57;100.00
10261;BME280;5175;42.606;23.388;2023-01-28T04:58:25;93193.69;;;-0.72;100.00
10261;BME280;5175;42.606;23.388;2023-01-28T05:00:55;93195.84;;;-0.69;100.00
10261;BME280;5175;42.606;23.388;2023-01-28T05:03:22;93191.06;;;-0.72;100.00
10261;BME280;5175;42.606;23.388;2023-01-28T05:05:50;93198.31;;;-0.86;100.00
10261;BME280;5175;42.606;23.388;2023-01-28T05:08:17;93203.75;;;-0.87;100.00
10261;BME280;5175;42.606;23.388;2023-01-28T05:10:43;93209.75;;;-0.98;100.00
10261;BME280;5175;42.606;23.388;2023-01-28T05:13:10;93202.91;;;-0.99;100.00
10261;BME280;5175;42.606;23.388;2023-01-28T05:15:38;93196.56;;;-0.92;100.00
10261;BME280;5175;42.606;23.388;2023-01-28T05:18:07;93215.66;;;-0.73;100.00
10261;BME280;5175;42.606;23.388;2023-01-28T05:20:33;93217.47;;;-0.74;100.00
10261;BME280;5175;42.606;23.388;2023-01-28T05:23:00;93218.50;;;-0.75;100.00
10261;BME280;5175;42.606;23.388;2023-01-28T05:25:27;93222.13;;;-0.76;100.00
10261;BME280;5175;42.606;23.388;2023-01-28T05:27:54;93218.03;;;-0.72;100.00
10261;BME280;5175;42.606;23.388;2023-01-28T05:30:21;93227.13;;;-0.74;100.00
10261;BME280;5175;42.606;23.388;2023-01-28T05:32:53;93216.66;;;-0.74;100.00
10261;BME280;5175;42.606;23.388;2023-01-28T05:35:20;93232.50;;;-0.69;100.00
10261;BME280;5175;42.606;23.388;2023-01-28T05:37:47;93226.94;;;-0.73;100.00
10261;BME280;5175;42.606;23.388;2023-01-28T05:40:14;93216.41;;;-0.84;100.00
10261;BME280;5175;42.606;23.388;2023-01-28T05:42:41;93227.38;;;-0.76;100.00
10261;BME280;5175;42.606;23.388;2023-01-28T05:45:09;93231.47;;;-0.68;100.00
10261;BME280;5175;42.606;23.388;2023-01-28T05:47:35;93222.63;;;-0.67;100.00
10261;BME280;5175;42.606;23.388;2023-01-28T05:50:04;93238.22;;;-0.60;100.00
10261;BME280;5175;42.606;23.388;2023-01-28T05:52:31;93223.88;;;-0.70;100.00
10261;BME280;5175;42.606;23.388;2023-01-28T05:54:58;93216.53;;;-0.79;100.00
10261;BME280;5175;42.606;23.388;2023-01-28T05:57:25;93236.03;;;-0.75;100.00
10261;BME280;5175;42.606;23.388;2023-01-28T05:59:52;93242.81;;;-0.86;100.00
10261;BME280;5175;42.606;23.388;2023-01-28T06:02:19;93240.34;;;-0.81;100.00
10261;BME280;5175;42.606;23.388;2023-01-28T06:04:46;93245.38;;;-0.68;100.00
10261;BME280;5175;42.606;23.388;2023-01-28T06:07:14;93248.50;;;-0.47;100.00
10261;BME280;5175;42.606;23.388;2023-01-28T06:09:44;93251.69;;;-0.57;100.00
10261;BME280;5175;42.606;23.388;2023-01-28T06:12:11;93259.97;;;-0.60;100.00
10261;BME280;5175;42.606;23.388;2023-01-28T06:14:38;93249.88;;;-0.45;100.00
10261;BME280;5175;42.606;23.388;2023-01-28T06:17:04;93268.47;;;-0.46;100.00
10261;BME280;5175;42.606;23.388;2023-01-28T06:19:31;93273.16;;;-0.37;100.00
10261;BME280;5175;42.606;23.388;2023-01-28T06:21:58;93279.06;;;-0.41;100.00
10261;BME280;5175;42.606;23.388;2023-01-28T06:24:26;93278.47;;;-0.43;100.00
10261;BME280;5175;42.606;23.388;2023-01-28T06:26:52;93291.75;;;-0.27;100.00
10261;BME280;5175;42.606;23.388;2023-01-28T06:29:19;93282.63;;;-0.24;100.00
10261;BME280;5175;42.606;23.388;2023-01-28T06:31:46;93288.34;;;-0.16;100.00
10261;BME280;5175;42.606;23.388;2023-01-28T06:34:13;93286.63;;;-0.22;100.00
10261;BME280;5175;42.606;23.388;2023-01-28T06:36:39;93291.31;;;-0.12;100.00
10261;BME280;5175;42.606;23.388;2023-01-28T06:39:06;93290.63;;;-0.19;100.00
10261;BME280;5175;42.606;23.388;2023-01-28T06:41:34;93300.66;;;-0.16;100.00
10261;BME280;5175;42.606;23.388;2023-01-28T06:44:01;93300.53;;;-0.10;100.00
10261;BME280;5175;42.606;23.388;2023-01-28T06:46:28;93304.66;;;-0.14;100.00
10261;BME280;5175;42.606;23.388;2023-01-28T06:48:54;93305.34;;;-0.07;100.00
10261;BME280;5175;42.606;23.388;2023-01-28T06:51:21;93307.94;;;-0.18;100.00
10261;BME280;5175;42.606;23.388;2023-01-28T06:53:48;93311.03;;;-0.21;100.00
10261;BME280;5175;42.606;23.388;2023-01-28T06:56:15;93317.19;;;-0.16;100.00
10261;BME280;5175;42.606;23.388;2023-01-28T06:58:43;93319.22;;;-0.18;100.00
10261;BME280;5175;42.606;23.388;2023-01-28T07:01:09;93314.75;;;-0.29;100.00
10261;BME280;5175;42.606;23.388;2023-01-28T07:03:36;93315.81;;;-0.18;100.00
10261;BME280;5175;42.606;23.388;2023-01-28T07:06:03;93328.75;;;-0.35;100.00
10261;BME280;5175;42.606;23.388;2023-01-28T07:08:30;93331.47;;;-0.41;100.00
10261;BME280;5175;42.606;23.388;2023-01-28T07:10:57;93332.97;;;-0.34;100.00
10261;BME280;5175;42.606;23.388;2023-01-28T07:13:24;93331.34;;;-0.46;100.00
10261;BME280;5175;42.606;23.388;2023-01-28T07:15:53;93337.69;;;-0.54;100.00
10261;BME280;5175;42.606;23.388;2023-01-28T07:18:19;93336.22;;;-0.50;100.00
10261;BME280;5175;42.606;23.388;2023-01-28T07:20:46;93351.34;;;-0.52;100.00
10261;BME280;5175;42.606;23.388;2023-01-28T07:23:13;93350.38;;;-0.39;100.00
10261;BME280;5175;42.606;23.388;2023-01-28T07:25:39;93356.44;;;-0.39;100.00
10261;BME280;5175;42.606;23.388;2023-01-28T07:28:06;93360.31;;;-0.30;100.00
10261;BME280;5175;42.606;23.388;2023-01-28T07:30:33;93353.81;;;-0.39;100.00
10261;BME280;5175;42.606;23.388;2023-01-28T07:33:01;93358.91;;;-0.44;100.00
10261;BME280;5175;42.606;23.388;2023-01-28T07:35:28;93365.56;;;-0.30;100.00
10261;BME280;5175;42.606;23.388;2023-01-28T07:37:58;93364.81;;;-0.19;100.00
10261;BME280;5175;42.606;23.388;2023-01-28T07:40:26;93367.00;;;-0.04;100.00
10261;BME280;5175;42.606;23.388;2023-01-28T07:42:53;93364.97;;;-0.02;100.00
10261;BME280;5175;42.606;23.388;2023-01-28T07:45:21;93369.00;;;0.12;100.00
10261;BME280;5175;42.606;23.388;2023-01-28T07:47:53;93351.53;;;0.06;100.00
10261;BME280;5175;42.606;23.388;2023-01-28T07:50:21;93374.06;;;0.25;100.00
10261;BME280;5175;42.606;23.388;2023-01-28T07:52:48;93376.78;;;0.30;100.00
10261;BME280;5175;42.606;23.388;2023-01-28T07:55:15;93377.75;;;0.06;100.00
10261;BME280;5175;42.606;23.388;2023-01-28T07:57:50;93379.13;;;0.09;100.00
10261;BME280;5175;42.606;23.388;2023-01-28T08:00:18;93380.53;;;0.23;100.00
10261;BME280;5175;42.606;23.388;2023-01-28T08:02:45;93387.03;;;0.20;100.00
10261;BME280;5175;42.606;23.388;2023-01-28T08:05:14;93369.22;;;0.11;100.00
10261;BME280;5175;42.606;23.388;2023-01-28T08:07:43;93386.44;;;0.07;100.00
10261;BME280;5175;42.606;23.388;2023-01-28T08:10:11;93374.84;;;-0.16;100.00
10261;BME280;5175;42.606;23.388;2023-01-28T08:12:38;93385.59;;;-0.06;100.00
10261;BME280;5175;42.606;23.388;2023-01-28T08:15:06;93369.63;;;-0.16;100.00
10261;BME280;5175;42.606;23.388;2023-01-28T08:17:33;93384.56;;;-0.05;100.00
10261;BME280;5175;42.606;23.388;2023-01-28T08:20:00;93393.34;;;-0.11;100.00
10261;BME280;5175;42.606;23.388;2023-01-28T08:22:26;93396.22;;;-0.01;100.00
10261;BME280;5175;42.606;23.388;2023-01-28T08:24:55;93396.09;;;-0.06;100.00
10261;BME280;5175;42.606;23.388;2023-01-28T08:27:21;93398.53;;;0.19;100.00
10261;BME280;5175;42.606;23.388;2023-01-28T08:29:49;93402.19;;;0.18;100.00
10261;BME280;5175;42.606;23.388;2023-01-28T08:32:15;93398.78;;;0.18;100.00
10261;BME280;5175;42.606;23.388;2023-01-28T08:34:42;93399.47;;;0.25;100.00
10261;BME280;5175;42.606;23.388;2023-01-28T08:37:09;93409.22;;;0.47;100.00
10261;BME280;5175;42.606;23.388;2023-01-28T08:39:35;93406.59;;;0.47;100.00
10261;BME280;5175;42.606;23.388;2023-01-28T08:42:04;93399.38;;;0.31;100.00
10261;BME280;5175;42.606;23.388;2023-01-28T08:44:31;93406.66;;;0.29;100.00
10261;BME280;5175;42.606;23.388;2023-01-28T08:46:58;93407.22;;;0.31;100.00
10261;BME280;5175;42.606;23.388;2023-01-28T08:49:25;93411.34;;;0.39;100.00
10261;BME280;5175;42.606;23.388;2023-01-28T08:51:51;93404.88;;;0.64;100.00
10261;BME280;5175;42.606;23.388;2023-01-28T08:54:19;93405.00;;;0.58;100.00
10261;BME280;5175;42.606;23.388;2023-01-28T08:56:46;93407.06;;;0.56;100.00
10261;BME280;5175;42.606;23.388;2023-01-28T08:59:14;93411.63;;;0.72;100.00
10261;BME280;5175;42.606;23.388;2023-01-28T09:01:41;93412.09;;;0.69;100.00
10261;BME280;5175;42.606;23.388;2023-01-28T09:04:08;93412.09;;;0.69;100.00
10261;BME280;5175;42.606;23.388;2023-01-28T09:06:34;93409.25;;;0.82;100.00
10261;BME280;5175;42.606;23.388;2023-01-28T09:09:02;93407.97;;;1.08;100.00
10261;BME280;5175;42.606;23.388;2023-01-28T09:11:28;93414.34;;;1.23;100.00
10261;BME280;5175;42.606;23.388;2023-01-28T09:13:56;93390.03;;;1.16;100.00
10261;BME280;5175;42.606;23.388;2023-01-28T09:16:24;93413.09;;;1.26;100.00
10261;BME280;5175;42.606;23.388;2023-01-28T09:18:51;93416.63;;;1.32;100.00
10261;BME280;5175;42.606;23.388;2023-01-28T09:21:18;93414.53;;;1.57;100.00
10261;BME280;5175;42.606;23.388;2023-01-28T09:23:45;93424.09;;;1.74;100.00
10261;BME280;5175;42.606;23.388;2023-01-28T09:26:12;93421.63;;;1.45;100.00
10261;BME280;5175;42.606;23.388;2023-01-28T09:28:39;93418.69;;;1.30;100.00
10261;BME280;5175;42.606;23.388;2023-01-28T09:31:06;93418.25;;;1.33;100.00
10261;BME280;5175;42.606;23.388;2023-01-28T09:33:36;93414.81;;;1.44;100.00
10261;BME280;5175;42.606;23.388;2023-01-28T09:36:05;93417.53;;;1.49;100.00
10261;BME280;5175;42.606;23.388;2023-01-28T09:38:32;93413.66;;;1.51;100.00
10261;BME280;5175;42.606;23.388;2023-01-28T09:41:01;93417.53;;;1.49;100.00
10261;BME280;5175;42.606;23.388;2023-01-28T09:43:53;93415.63;;;1.21;100.00
10261;BME280;5175;42.606;23.388;2023-01-28T09:46:30;93417.81;;;1.12;100.00
10261;BME280;5175;42.606;23.388;2023-01-28T09:49:02;93411.53;;;1.02;100.00
10261;BME280;5175;42.606;23.388;2023-01-28T09:51:33;93414.03;;;1.08;100.00
10261;BME280;5175;42.606;23.388;2023-01-28T09:54:05;93411.28;;;1.26;100.00
10261;BME280;5175;42.606;23.388;2023-01-28T09:56:41;93407.59;;;1.51;100.00
10261;BME280;5175;42.606;23.388;2023-01-28T09:59:16;93411.50;;;1.76;100.00
10261;BME280;5175;42.606;23.388;2023-01-28T10:01:49;93414.25;;;1.81;100.00
10261;BME280;5175;42.606;23.388;2023-01-28T10:04:29;93409.72;;;1.94;100.00
10261;BME280;5175;42.606;23.388;2023-01-28T10:07:12;93413.09;;;2.06;100.00
10261;BME280;5175;42.606;23.388;2023-01-28T10:09:47;93411.47;;;1.88;100.00
10261;BME280;5175;42.606;23.388;2023-01-28T10:12:27;93413.66;;;1.51;100.00
10261;BME280;5175;42.606;23.388;2023-01-28T10:18:08;93400.41;;;1.35;100.00
10261;BME280;5175;42.606;23.388;2023-01-28T10:20:40;93412.13;;;1.55;100.00
10261;BME280;5175;42.606;23.388;2023-01-28T10:23:14;93403.44;;;1.55;100.00
10261;BME280;5175;42.606;23.388;2023-01-28T10:25:44;93399.91;;;1.49;100.00
10261;BME280;5175;42.606;23.388;2023-01-28T10:28:18;93407.91;;;1.54;100.00
10261;BME280;5175;42.606;23.388;2023-01-28T10:30:46;93408.81;;;1.60;100.00
10261;BME280;5175;42.606;23.388;2023-01-28T10:33:17;93405.72;;;1.63;100.00
10261;BME280;5175;42.606;23.388;2023-01-28T10:35:47;93409.97;;;1.64;100.00
10261;BME280;5175;42.606;23.388;2023-01-28T10:38:17;93408.53;;;1.73;100.00
10261;BME280;5175;42.606;23.388;2023-01-28T10:40:45;93407.38;;;1.80;100.00
10261;BME280;5175;42.606;23.388;2023-01-28T10:43:14;93405.41;;;1.48;100.00
10261;BME280;5175;42.606;23.388;2023-01-28T10:45:50;93400.72;;;1.50;100.00
10261;BME280;5175;42.606;23.388;2023-01-28T10:48:21;93340.00;;;1.23;100.00
10261;BME280;5175;42.606;23.388;2023-01-28T10:50:51;93402.56;;;1.77;100.00
10261;BME280;5175;42.606;23.388;2023-01-28T10:53:18;93393.56;;;1.73;100.00
10261;BME280;5175;42.606;23.388;2023-01-28T10:55:48;93403.53;;;1.60;100.00
10261;BME280;5175;42.606;23.388;2023-01-28T10:58:18;93393.88;;;1.49;100.00
10261;BME280;5175;42.606;23.388;2023-01-28T11:00:51;93389.56;;;1.31;100.00
10261;BME280;5175;42.606;23.388;2023-01-28T11:03:18;93403.22;;;1.56;100.00
10261;BME280;5175;42.606;23.388;2023-01-28T11:05:52;93396.47;;;1.60;100.00
10261;BME280;5175;42.606;23.388;2023-01-28T11:08:19;93395.09;;;1.58;100.00
10261;BME280;5175;42.606;23.388;2023-01-28T11:10:47;93399.63;;;1.74;100.00
10261;BME280;5175;42.606;23.388;2023-01-28T11:13:16;93397.28;;;1.89;100.00
10261;BME280;5175;42.606;23.388;2023-01-28T11:15:49;93390.59;;;1.70;100.00
10261;BME280;5175;42.606;23.388;2023-01-28T11:18:19;93398.84;;;1.62;100.00
10261;BME280;5175;42.606;23.388;2023-01-28T11:20:52;93398.03;;;1.73;100.00
10261;BME280;5175;42.606;23.388;2023-01-28T11:23:23;93387.66;;;1.66;100.00
10261;BME280;5175;42.606;23.388;2023-01-28T11:26:05;93393.81;;;1.72;100.00
10261;BME280;5175;42.606;23.388;2023-01-28T11:28:34;93392.00;;;1.61;100.00
10261;BME280;5175;42.606;23.388;2023-01-28T11:31:05;93389.41;;;1.89;100.00
10261;BME280;5175;42.606;23.388;2023-01-28T11:33:35;93375.44;;;1.88;100.00
10261;BME280;5175;42.606;23.388;2023-01-28T11:36:07;93397.41;;;2.11;100.00
10261;BME280;5175;42.606;23.388;2023-01-28T11:38:47;93394.19;;;2.20;100.00
10261;BME280;5175;42.606;23.388;2023-01-28T11:41:15;93392.75;;;2.29;100.00
10261;BME280;5175;42.606;23.388;2023-01-28T11:43:42;93396.34;;;2.23;100.00
10261;BME280;5175;42.606;23.388;2023-01-28T11:46:27;93397.91;;;2.08;100.00
10261;BME280;5175;42.606;23.388;2023-01-28T11:49:06;93401.41;;;2.13;100.00
10261;BME280;5175;42.606;23.388;2023-01-28T11:51:41;93392.25;;;1.87;100.00
10261;BME280;5175;42.606;23.388;2023-01-28T11:54:22;93398.13;;;1.78;100.00
10261;BME280;5175;42.606;23.388;2023-01-28T11:57:03;93400.91;;;1.60;100.00
10261;BME280;5175;42.606;23.388;2023-01-28T11:59:48;93393.59;;;1.62;100.00
10261;BME280;5175;42.606;23.388;2023-01-28T12:02:32;93392.84;;;1.89;100.00
10261;BME280;5175;42.606;23.388;2023-01-28T12:05:16;93391.84;;;1.79;100.00
10261;BME280;5175;42.606;23.388;2023-01-28T12:07:53;93397.94;;;1.68;100.00
10261;BME280;5175;42.606;23.388;2023-01-28T12:10:27;93390.94;;;1.73;100.00
10261;BME280;5175;42.606;23.388;2023-01-28T12:13:07;93405.19;;;1.89;100.00
10261;BME280;5175;42.606;23.388;2023-01-28T12:16:19;93401.19;;;1.86;100.00
10261;BME280;5175;42.606;23.388;2023-01-28T12:19:17;93398.88;;;1.90;100.00
10261;BME280;5175;42.606;23.388;2023-01-28T12:22:00;93400.03;;;1.82;100.00
10261;BME280;5175;42.606;23.388;2023-01-28T12:24:44;93401.75;;;1.88;100.00
10261;BME280;5175;42.606;23.388;2023-01-28T12:27:25;93390.66;;;1.58;100.00
10261;BME280;5175;42.606;23.388;2023-01-28T12:29:58;93401.47;;;1.73;100.00
10261;BME280;5175;42.606;23.388;2023-01-28T12:32:38;93401.94;;;1.99;100.00
10261;BME280;5175;42.606;23.388;2023-01-28T12:35:20;93407.56;;;1.90;100.00
10261;BME280;5175;42.606;23.388;2023-01-28T12:38:07;93401.91;;;2.10;100.00
10261;BME280;5175;42.606;23.388;2023-01-28T12:40:46;93399.31;;;1.99;100.00
10261;BME280;5175;42.606;23.388;2023-01-28T12:43:21;93407.66;;;2.24;100.00
10261;BME280;5175;42.606;23.388;2023-01-28T12:45:53;93413.53;;;2.14;100.00
10261;BME280;5175;42.606;23.388;2023-01-28T12:48:26;93416.22;;;2.31;100.00
10261;BME280;5175;42.606;23.388;2023-01-28T12:50:59;93401.38;;;2.25;100.00
10261;BME280;5175;42.606;23.388;2023-01-28T12:53:36;93419.81;;;2.13;100.00
10261;BME280;5175;42.606;23.388;2023-01-28T12:56:09;93399.41;;;2.04;100.00
10261;BME280;5175;42.606;23.388;2023-01-28T12:58:44;93421.53;;;2.19;100.00
10261;BME280;5175;42.606;23.388;2023-01-28T13:01:15;93426.03;;;2.07;100.00
10261;BME280;5175;42.606;23.388;2023-01-28T13:03:50;93428.25;;;1.99;100.00
10261;BME280;5175;42.606;23.388;2023-01-28T13:06:23;93418.88;;;1.91;100.00
10261;BME280;5175;42.606;23.388;2023-01-28T13:08:58;93450.53;;;1.96;100.00
10261;BME280;5175;42.606;23.388;2023-01-28T13:11:32;93429.41;;;2.19;100.00
10261;BME280;5175;42.606;23.388;2023-01-28T13:14:01;93438.66;;;1.94;100.00
10261;BME280;5175;42.606;23.388;2023-01-28T13:16:29;93438.19;;;1.97;100.00